sensor_id;sensor_type;location;lat;lon;timestamp;P1;durP1;ratioP1;P2;durP2;ratioP2
18893;SDS011;9579;49.488;8.226;2023-12-14T00:02:36;8.10;;;6.73;;
18893;SDS011;9579;49.488;8.226;2023-12-14T00:05:23;7.93;;;6.77;;
18893;SDS011;9579;49.488;8.226;2023-12-14T00:08:10;6.83;;;6.13;;
18893;SDS011;9579;49.488;8.226;2023-12-14T00:10:58;7.60;;;6.80;;
18893;SDS011;9579;49.488;8.226;2023-12-14T00:13:50;9.63;;;8.63;;
18893;SDS011;9579;49.488;8.226;2023-12-14T00:16:37;11.83;;;9.33;;
18893;SDS011;9579;49.488;8.226;2023-12-14T00:19:24;10.00;;;8.47;;
18893;SDS011;9579;49.488;8.226;2023-12-14T00:22:11;9.93;;;8.93;;
18893;SDS011;9579;49.488;8.226;2023-12-14T00:24:58;9.03;;;7.90;;
18893;SDS011;9579;49.488;8.226;2023-12-14T00:27:47;7.30;;;6.60;;
18893;SDS011;9579;49.488;8.226;2023-12-14T00:30:34;7.13;;;6.43;;
18893;SDS011;9579;49.488;8.226;2023-12-14T00:33:21;7.50;;;6.53;;
18893;SDS011;9579;49.488;8.226;2023-12-14T00:36:08;7.20;;;6.50;;
18893;SDS011;9579;49.488;8.226;2023-12-14T00:38:56;7.70;;;6.90;;
18893;SDS011;9579;49.488;8.226;2023-12-14T00:41:43;8.20;;;7.13;;
18893;SDS011;9579;49.488;8.226;2023-12-14T00:44:31;7.80;;;7.10;;
18893;SDS011;9579;49.488;8.226;2023-12-14T00:47:18;7.63;;;6.93;;
18893;SDS011;9579;49.488;8.226;2023-12-14T00:50:05;7.73;;;7.03;;
18893;SDS011;9579;49.488;8.226;2023-12-14T00:52:53;8.27;;;7.03;;
18893;SDS011;9579;49.488;8.226;2023-12-14T00:55:40;7.63;;;6.83;;
18893;SDS011;9579;49.488;8.226;2023-12-14T00:58:27;7.40;;;6.70;;
18893;SDS011;9579;49.488;8.226;2023-12-14T01:01:15;8.60;;;7.80;;
18893;SDS011;9579;49.488;8.226;2023-12-14T01:04:02;9.03;;;8.13;;
18893;SDS011;9579;49.488;8.226;2023-12-14T01:06:50;7.93;;;7.13;;
18893;SDS011;9579;49.488;8.226;2023-12-14T01:09:37;7.20;;;6.60;;
18893;SDS011;9579;49.488;8.226;2023-12-14T01:12:24;6.70;;;6.10;;
18893;SDS011;9579;49.488;8.226;2023-12-14T01:15:11;7.07;;;6.43;;
18893;SDS011;9579;49.488;8.226;2023-12-14T01:17:59;7.60;;;6.80;;
18893;SDS011;9579;49.488;8.226;2023-12-14T01:20:46;7.07;;;6.47;;
18893;SDS011;9579;49.488;8.226;2023-12-14T01:23:33;6.30;;;5.80;;
18893;SDS011;9579;49.488;8.226;2023-12-14T01:26:20;6.80;;;6.03;;
18893;SDS011;9579;49.488;8.226;2023-12-14T01:29:07;6.83;;;6.23;;
18893;SDS011;9579;49.488;8.226;2023-12-14T01:31:54;6.83;;;6.13;;
18893;SDS011;9579;49.488;8.226;2023-12-14T01:34:43;6.57;;;5.97;;
18893;SDS011;9579;49.488;8.226;2023-12-14T01:37:30;6.03;;;5.53;;
18893;SDS011;9579;49.488;8.226;2023-12-14T01:40:18;7.50;;;6.80;;
18893;SDS011;9579;49.488;8.226;2023-12-14T01:43:06;6.70;;;6.10;;
18893;SDS011;9579;49.488;8.226;2023-12-14T01:45:54;7.20;;;6.57;;
18893;SDS011;9579;49.488;8.226;2023-12-14T01:48:41;7.30;;;6.60;;
18893;SDS011;9579;49.488;8.226;2023-12-14T01:51:30;7.07;;;6.43;;
18893;SDS011;9579;49.488;8.226;2023-12-14T01:54:19;6.83;;;6.20;;
18893;SDS011;9579;49.488;8.226;2023-12-14T01:57:06;7.60;;;6.90;;
18893;SDS011;9579;49.488;8.226;2023-12-14T01:59:53;6.67;;;6.07;;
18893;SDS011;9579;49.488;8.226;2023-12-14T02:02:40;6.70;;;6.10;;
18893;SDS011;9579;49.488;8.226;2023-12-14T02:05:27;7.63;;;6.83;;
18893;SDS011;9579;49.488;8.226;2023-12-14T02:08:15;8.73;;;7.23;;
18893;SDS011;9579;49.488;8.226;2023-12-14T02:11:02;6.90;;;6.30;;
18893;SDS011;9579;49.488;8.226;2023-12-14T02:13:49;7.40;;;6.70;;
18893;SDS011;9579;49.488;8.226;2023-12-14T02:16:36;8.40;;;7.70;;
18893;SDS011;9579;49.488;8.226;2023-12-14T02:19:24;7.83;;;7.17;;
18893;SDS011;9579;49.488;8.226;2023-12-14T02:22:11;7.17;;;6.57;;
18893;SDS011;9579;49.488;8.226;2023-12-14T02:25:00;8.00;;;7.30;;
18893;SDS011;9579;49.488;8.226;2023-12-14T02:27:47;8.50;;;7.70;;
18893;SDS011;9579;49.488;8.226;2023-12-14T02:30:34;7.30;;;6.60;;
18893;SDS011;9579;49.488;8.226;2023-12-14T02:33:21;7.80;;;7.10;;
18893;SDS011;9579;49.488;8.226;2023-12-14T02:36:08;7.40;;;6.80;;
18893;SDS011;9579;49.488;8.226;2023-12-14T02:38:55;7.43;;;6.80;;
18893;SDS011;9579;49.488;8.226;2023-12-14T02:41:44;9.20;;;8.30;;
18893;SDS011;9579;49.488;8.226;2023-12-14T02:44:31;7.60;;;6.93;;
18893;SDS011;9579;49.488;8.226;2023-12-14T02:47:18;7.17;;;6.57;;
18893;SDS011;9579;49.488;8.226;2023-12-14T02:50:05;7.50;;;6.80;;
18893;SDS011;9579;49.488;8.226;2023-12-14T02:52:53;7.63;;;6.93;;
18893;SDS011;9579;49.488;8.226;2023-12-14T02:55:40;7.87;;;7.07;;
18893;SDS011;9579;49.488;8.226;2023-12-14T02:58:28;7.63;;;7.03;;
18893;SDS011;9579;49.488;8.226;2023-12-14T03:01:15;7.77;;;7.07;;
18893;SDS011;9579;49.488;8.226;2023-12-14T03:04:04;8.10;;;7.40;;
18893;SDS011;9579;49.488;8.226;2023-12-14T03:06:52;7.47;;;6.87;;
18893;SDS011;9579;49.488;8.226;2023-12-14T03:09:41;7.77;;;7.10;;
18893;SDS011;9579;49.488;8.226;2023-12-14T03:12:29;7.53;;;6.83;;
18893;SDS011;9579;49.488;8.226;2023-12-14T03:15:18;6.57;;;6.07;;
18893;SDS011;9579;49.488;8.226;2023-12-14T03:18:05;7.50;;;6.70;;
18893;SDS011;9579;49.488;8.226;2023-12-14T03:20:52;6.90;;;6.30;;
18893;SDS011;9579;49.488;8.226;2023-12-14T03:23:39;7.43;;;6.83;;
18893;SDS011;9579;49.488;8.226;2023-12-14T03:26:26;7.87;;;7.27;;
18893;SDS011;9579;49.488;8.226;2023-12-14T03:29:13;7.67;;;6.97;;
18893;SDS011;9579;49.488;8.226;2023-12-14T03:32:01;7.33;;;6.70;;
18893;SDS011;9579;49.488;8.226;2023-12-14T03:34:48;7.60;;;7.00;;
18893;SDS011;9579;49.488;8.226;2023-12-14T03:37:35;7.67;;;7.07;;
18893;SDS011;9579;49.488;8.226;2023-12-14T03:40:22;7.47;;;6.87;;
18893;SDS011;9579;49.488;8.226;2023-12-14T03:43:09;7.67;;;7.07;;
18893;SDS011;9579;49.488;8.226;2023-12-14T03:45:56;7.40;;;6.73;;
18893;SDS011;9579;49.488;8.226;2023-12-14T03:48:44;8.70;;;7.80;;
18893;SDS011;9579;49.488;8.226;2023-12-14T03:51:32;7.87;;;7.17;;
18893;SDS011;9579;49.488;8.226;2023-12-14T03:54:19;7.47;;;6.80;;
18893;SDS011;9579;49.488;8.226;2023-12-14T03:57:06;7.40;;;6.70;;
18893;SDS011;9579;49.488;8.226;2023-12-14T03:59:53;8.50;;;7.80;;
18893;SDS011;9579;49.488;8.226;2023-12-14T04:02:40;8.10;;;7.40;;
18893;SDS011;9579;49.488;8.226;2023-12-14T04:05:28;7.20;;;6.60;;
18893;SDS011;9579;49.488;8.226;2023-12-14T04:08:15;8.20;;;7.40;;
18893;SDS011;9579;49.488;8.226;2023-12-14T04:11:02;8.20;;;7.47;;
18893;SDS011;9579;49.488;8.226;2023-12-14T04:13:49;7.37;;;6.77;;
18893;SDS011;9579;49.488;8.226;2023-12-14T04:16:38;7.90;;;7.20;;
18893;SDS011;9579;49.488;8.226;2023-12-14T04:19:25;8.10;;;7.40;;
18893;SDS011;9579;49.488;8.226;2023-12-14T04:22:14;8.30;;;7.57;;
18893;SDS011;9579;49.488;8.226;2023-12-14T04:25:01;8.00;;;7.30;;
18893;SDS011;9579;49.488;8.226;2023-12-14T04:27:48;8.20;;;7.50;;
18893;SDS011;9579;49.488;8.226;2023-12-14T04:30:35;7.07;;;6.47;;
18893;SDS011;9579;49.488;8.226;2023-12-14T04:33:22;8.83;;;8.13;;
18893;SDS011;9579;49.488;8.226;2023-12-14T04:36:09;7.70;;;7.00;;
18893;SDS011;9579;49.488;8.226;2023-12-14T04:38:57;8.80;;;8.00;;
18893;SDS011;9579;49.488;8.226;2023-12-14T04:41:45;8.10;;;7.40;;
18893;SDS011;9579;49.488;8.226;2023-12-14T04:44:32;7.70;;;7.00;;
18893;SDS011;9579;49.488;8.226;2023-12-14T04:47:19;7.70;;;7.00;;
18893;SDS011;9579;49.488;8.226;2023-12-14T04:50:06;8.00;;;7.37;;
18893;SDS011;9579;49.488;8.226;2023-12-14T04:52:53;8.03;;;7.33;;
18893;SDS011;9579;49.488;8.226;2023-12-14T04:55:42;7.30;;;6.70;;
18893;SDS011;9579;49.488;8.226;2023-12-14T04:58:29;6.60;;;6.00;;
18893;SDS011;9579;49.488;8.226;2023-12-14T05:01:16;6.47;;;5.97;;
18893;SDS011;9579;49.488;8.226;2023-12-14T05:04:03;5.97;;;5.47;;
18893;SDS011;9579;49.488;8.226;2023-12-14T05:06:50;5.93;;;5.43;;
18893;SDS011;9579;49.488;8.226;2023-12-14T05:09:37;7.63;;;6.93;;
18893;SDS011;9579;49.488;8.226;2023-12-14T05:12:25;7.40;;;6.80;;
18893;SDS011;9579;49.488;8.226;2023-12-14T05:15:14;6.80;;;6.20;;
18893;SDS011;9579;49.488;8.226;2023-12-14T05:18:01;6.93;;;6.33;;
18893;SDS011;9579;49.488;8.226;2023-12-14T05:20:48;7.90;;;7.20;;
18893;SDS011;9579;49.488;8.226;2023-12-14T05:23:35;7.90;;;7.20;;
18893;SDS011;9579;49.488;8.226;2023-12-14T05:26:22;7.23;;;6.63;;
18893;SDS011;9579;49.488;8.226;2023-12-14T05:29:10;7.03;;;6.43;;
18893;SDS011;9579;49.488;8.226;2023-12-14T05:31:57;7.27;;;6.57;;
18893;SDS011;9579;49.488;8.226;2023-12-14T05:34:44;7.00;;;6.50;;
18893;SDS011;9579;49.488;8.226;2023-12-14T05:37:31;8.07;;;7.37;;
18893;SDS011;9579;49.488;8.226;2023-12-14T05:40:18;7.30;;;6.60;;
18893;SDS011;9579;49.488;8.226;2023-12-14T05:43:05;7.20;;;6.60;;
18893;SDS011;9579;49.488;8.226;2023-12-14T05:45:54;8.73;;;7.87;;
18893;SDS011;9579;49.488;8.226;2023-12-14T05:48:40;6.57;;;5.97;;
18893;SDS011;9579;49.488;8.226;2023-12-14T05:51:28;6.17;;;5.67;;
18893;SDS011;9579;49.488;8.226;2023-12-14T05:54:16;7.07;;;6.37;;
18893;SDS011;9579;49.488;8.226;2023-12-14T05:57:03;7.37;;;6.77;;
18893;SDS011;9579;49.488;8.226;2023-12-14T05:59:50;7.80;;;7.10;;
18893;SDS011;9579;49.488;8.226;2023-12-14T06:02:39;7.70;;;7.00;;
18893;SDS011;9579;49.488;8.226;2023-12-14T06:05:26;8.10;;;7.40;;
18893;SDS011;9579;49.488;8.226;2023-12-14T06:08:13;8.60;;;7.90;;
18893;SDS011;9579;49.488;8.226;2023-12-14T06:11:00;8.40;;;7.70;;
18893;SDS011;9579;49.488;8.226;2023-12-14T06:13:47;7.60;;;6.90;;
18893;SDS011;9579;49.488;8.226;2023-12-14T06:16:34;9.00;;;8.20;;
18893;SDS011;9579;49.488;8.226;2023-12-14T06:19:22;8.80;;;8.00;;
18893;SDS011;9579;49.488;8.226;2023-12-14T06:22:09;7.90;;;7.20;;
18893;SDS011;9579;49.488;8.226;2023-12-14T06:24:56;8.63;;;7.93;;
18893;SDS011;9579;49.488;8.226;2023-12-14T06:27:43;9.07;;;8.27;;
18893;SDS011;9579;49.488;8.226;2023-12-14T06:30:31;9.30;;;8.40;;
18893;SDS011;9579;49.488;8.226;2023-12-14T06:33:18;8.63;;;7.93;;
18893;SDS011;9579;49.488;8.226;2023-12-14T06:36:07;9.27;;;8.47;;
18893;SDS011;9579;49.488;8.226;2023-12-14T06:38:55;9.13;;;8.33;;
18893;SDS011;9579;49.488;8.226;2023-12-14T06:41:42;8.63;;;7.93;;
18893;SDS011;9579;49.488;8.226;2023-12-14T06:44:29;7.53;;;6.93;;
18893;SDS011;9579;49.488;8.226;2023-12-14T06:47:16;7.53;;;6.73;;
18893;SDS011;9579;49.488;8.226;2023-12-14T06:50:03;7.93;;;7.33;;
18893;SDS011;9579;49.488;8.226;2023-12-14T06:52:52;7.90;;;7.17;;
18893;SDS011;9579;49.488;8.226;2023-12-14T06:55:39;8.33;;;7.63;;
18893;SDS011;9579;49.488;8.226;2023-12-14T06:58:26;8.20;;;7.50;;
18893;SDS011;9579;49.488;8.226;2023-12-14T07:01:14;8.17;;;7.47;;
18893;SDS011;9579;49.488;8.226;2023-12-14T07:04:01;8.17;;;7.53;;
18893;SDS011;9579;49.488;8.226;2023-12-14T07:06:52;8.67;;;7.60;;
18893;SDS011;9579;49.488;8.226;2023-12-14T07:09:41;9.20;;;8.40;;
18893;SDS011;9579;49.488;8.226;2023-12-14T07:12:28;9.43;;;8.53;;
18893;SDS011;9579;49.488;8.226;2023-12-14T07:15:15;8.97;;;8.13;;
18893;SDS011;9579;49.488;8.226;2023-12-14T07:18:02;8.50;;;7.80;;
18893;SDS011;9579;49.488;8.226;2023-12-14T07:20:49;10.63;;;9.53;;
18893;SDS011;9579;49.488;8.226;2023-12-14T07:23:36;8.90;;;8.17;;
18893;SDS011;9579;49.488;8.226;2023-12-14T07:26:25;8.80;;;8.00;;
18893;SDS011;9579;49.488;8.226;2023-12-14T07:29:12;8.97;;;8.27;;
18893;SDS011;9579;49.488;8.226;2023-12-14T07:31:59;8.07;;;7.37;;
18893;SDS011;9579;49.488;8.226;2023-12-14T07:34:46;7.37;;;6.77;;
18893;SDS011;9579;49.488;8.226;2023-12-14T07:37:33;8.23;;;7.43;;
18893;SDS011;9579;49.488;8.226;2023-12-14T07:40:20;8.03;;;7.17;;
18893;SDS011;9579;49.488;8.226;2023-12-14T07:43:08;7.60;;;7.00;;
18893;SDS011;9579;49.488;8.226;2023-12-14T07:45:55;8.83;;;8.03;;
18893;SDS011;9579;49.488;8.226;2023-12-14T07:48:43;9.10;;;8.20;;
18893;SDS011;9579;49.488;8.226;2023-12-14T07:51:30;10.83;;;9.93;;
18893;SDS011;9579;49.488;8.226;2023-12-14T07:54:17;11.83;;;10.83;;
18893;SDS011;9579;49.488;8.226;2023-12-14T07:57:04;8.90;;;8.10;;
18893;SDS011;9579;49.488;8.226;2023-12-14T07:59:53;8.70;;;7.90;;
18893;SDS011;9579;49.488;8.226;2023-12-14T08:02:40;8.00;;;7.30;;
18893;SDS011;9579;49.488;8.226;2023-12-14T08:05:27;8.63;;;7.83;;
18893;SDS011;9579;49.488;8.226;2023-12-14T08:08:14;8.83;;;7.93;;
18893;SDS011;9579;49.488;8.226;2023-12-14T08:11:01;10.60;;;8.77;;
18893;SDS011;9579;49.488;8.226;2023-12-14T08:13:48;10.60;;;9.60;;
18893;SDS011;9579;49.488;8.226;2023-12-14T08:16:36;11.13;;;9.93;;
18893;SDS011;9579;49.488;8.226;2023-12-14T08:19:23;9.33;;;8.43;;
18893;SDS011;9579;49.488;8.226;2023-12-14T08:22:10;9.90;;;8.90;;
18893;SDS011;9579;49.488;8.226;2023-12-14T08:25:00;9.43;;;8.60;;
18893;SDS011;9579;49.488;8.226;2023-12-14T08:27:49;10.73;;;9.40;;
18893;SDS011;9579;49.488;8.226;2023-12-14T08:30:36;10.10;;;9.10;;
18893;SDS011;9579;49.488;8.226;2023-12-14T08:33:25;10.07;;;9.17;;
18893;SDS011;9579;49.488;8.226;2023-12-14T08:36:14;10.20;;;9.20;;
18893;SDS011;9579;49.488;8.226;2023-12-14T08:39:02;7.80;;;7.10;;
18893;SDS011;9579;49.488;8.226;2023-12-14T08:41:49;8.47;;;7.67;;
18893;SDS011;9579;49.488;8.226;2023-12-14T08:44:38;8.93;;;8.00;;
18893;SDS011;9579;49.488;8.226;2023-12-14T08:47:25;12.80;;;11.60;;
18893;SDS011;9579;49.488;8.226;2023-12-14T08:50:13;11.87;;;10.60;;
18893;SDS011;9579;49.488;8.226;2023-12-14T08:53:01;9.77;;;8.83;;
18893;SDS011;9579;49.488;8.226;2023-12-14T08:55:50;8.93;;;8.10;;
18893;SDS011;9579;49.488;8.226;2023-12-14T08:58:37;8.07;;;7.37;;
18893;SDS011;9579;49.488;8.226;2023-12-14T09:01:24;7.93;;;7.23;;
18893;SDS011;9579;49.488;8.226;2023-12-14T09:04:11;13.93;;;12.00;;
18893;SDS011;9579;49.488;8.226;2023-12-14T09:07:00;17.43;;;15.00;;
18893;SDS011;9579;49.488;8.226;2023-12-14T09:09:47;15.33;;;13.40;;
18893;SDS011;9579;49.488;8.226;2023-12-14T09:12:34;11.43;;;9.60;;
18893;SDS011;9579;49.488;8.226;2023-12-14T09:15:21;12.00;;;10.63;;
18893;SDS011;9579;49.488;8.226;2023-12-14T09:18:08;12.53;;;11.23;;
18893;SDS011;9579;49.488;8.226;2023-12-14T09:20:55;12.60;;;11.30;;
18893;SDS011;9579;49.488;8.226;2023-12-14T09:23:44;9.70;;;8.70;;
18893;SDS011;9579;49.488;8.226;2023-12-14T09:26:31;8.37;;;7.63;;
18893;SDS011;9579;49.488;8.226;2023-12-14T09:29:18;8.70;;;7.77;;
18893;SDS011;9579;49.488;8.226;2023-12-14T09:32:06;8.17;;;7.47;;
18893;SDS011;9579;49.488;8.226;2023-12-14T09:34:54;7.87;;;7.17;;
18893;SDS011;9579;49.488;8.226;2023-12-14T09:37:42;9.90;;;8.90;;
18893;SDS011;9579;49.488;8.226;2023-12-14T09:40:30;9.33;;;8.03;;
18893;SDS011;9579;49.488;8.226;2023-12-14T09:43:17;9.87;;;8.87;;
18893;SDS011;9579;49.488;8.226;2023-12-14T09:46:05;9.77;;;8.77;;
18893;SDS011;9579;49.488;8.226;2023-12-14T09:48:53;8.83;;;7.93;;
18893;SDS011;9579;49.488;8.226;2023-12-14T09:51:42;9.80;;;8.37;;
18893;SDS011;9579;49.488;8.226;2023-12-14T09:54:29;9.63;;;8.63;;
18893;SDS011;9579;49.488;8.226;2023-12-14T09:57:19;10.47;;;9.17;;
18893;SDS011;9579;49.488;8.226;2023-12-14T10:00:07;10.63;;;8.90;;
18893;SDS011;9579;49.488;8.226;2023-12-14T10:02:56;9.70;;;8.80;;
18893;SDS011;9579;49.488;8.226;2023-12-14T10:05:43;8.13;;;7.40;;
18893;SDS011;9579;49.488;8.226;2023-12-14T10:08:30;8.57;;;7.77;;
18893;SDS011;9579;49.488;8.226;2023-12-14T10:11:17;8.60;;;7.80;;
18893;SDS011;9579;49.488;8.226;2023-12-14T10:14:11;9.00;;;8.20;;
18893;SDS011;9579;49.488;8.226;2023-12-14T10:17:16;9.40;;;8.50;;
18893;SDS011;9579;49.488;8.226;2023-12-14T10:20:05;9.40;;;8.50;;
18893;SDS011;9579;49.488;8.226;2023-12-14T10:22:54;9.17;;;8.00;;
18893;SDS011;9579;49.488;8.226;2023-12-14T13:57:58;8.43;;;7.63;;
18893;SDS011;9579;49.488;8.226;2023-12-14T14:00:46;6.57;;;6.03;;
18893;SDS011;9579;49.488;8.226;2023-12-14T14:03:33;17.63;;;14.73;;
18893;SDS011;9579;49.488;8.226;2023-12-14T14:06:20;10.03;;;9.13;;
18893;SDS011;9579;49.488;8.226;2023-12-14T14:09:08;8.80;;;7.97;;
18893;SDS011;9579;49.488;8.226;2023-12-14T14:11:56;9.90;;;9.00;;
18893;SDS011;9579;49.488;8.226;2023-12-14T14:14:44;10.77;;;9.67;;
18893;SDS011;9579;49.488;8.226;2023-12-14T14:17:31;9.53;;;8.67;;
18893;SDS011;9579;49.488;8.226;2023-12-14T14:20:19;12.60;;;10.83;;
18893;SDS011;9579;49.488;8.226;2023-12-14T14:23:06;9.97;;;9.07;;
18893;SDS011;9579;49.488;8.226;2023-12-14T14:25:53;10.67;;;9.60;;
18893;SDS011;9579;49.488;8.226;2023-12-14T14:28:40;12.47;;;11.17;;
18893;SDS011;9579;49.488;8.226;2023-12-14T14:31:28;17.77;;;14.90;;
18893;SDS011;9579;49.488;8.226;2023-12-14T14:34:17;14.80;;;12.20;;
18893;SDS011;9579;49.488;8.226;2023-12-14T14:37:05;24.87;;;19.43;;
18893;SDS011;9579;49.488;8.226;2023-12-14T14:39:52;12.43;;;11.13;;
18893;SDS011;9579;49.488;8.226;2023-12-14T14:42:39;8.47;;;7.57;;
18893;SDS011;9579;49.488;8.226;2023-12-14T14:45:26;6.87;;;6.27;;
18893;SDS011;9579;49.488;8.226;2023-12-14T14:48:14;5.97;;;5.40;;
18893;SDS011;9579;49.488;8.226;2023-12-14T14:51:02;5.77;;;5.23;;
18893;SDS011;9579;49.488;8.226;2023-12-14T14:53:49;5.63;;;5.13;;
18893;SDS011;9579;49.488;8.226;2023-12-14T14:56:36;6.07;;;5.57;;
18893;SDS011;9579;49.488;8.226;2023-12-14T14:59:24;5.50;;;5.10;;
18893;SDS011;9579;49.488;8.226;2023-12-14T15:02:12;5.27;;;4.87;;
18893;SDS011;9579;49.488;8.226;2023-12-14T15:05:00;5.43;;;5.00;;
18893;SDS011;9579;49.488;8.226;2023-12-14T15:07:47;4.97;;;4.57;;
18893;SDS011;9579;49.488;8.226;2023-12-14T15:10:34;5.10;;;4.70;;
18893;SDS011;9579;49.488;8.226;2023-12-14T15:13:21;4.83;;;4.50;;
18893;SDS011;9579;49.488;8.226;2023-12-14T15:16:08;5.03;;;4.63;;
18893;SDS011;9579;49.488;8.226;2023-12-14T15:18:56;4.67;;;4.37;;
18893;SDS011;9579;49.488;8.226;2023-12-14T15:21:45;4.97;;;4.57;;
18893;SDS011;9579;49.488;8.226;2023-12-14T15:24:32;5.70;;;5.20;;
18893;SDS011;9579;49.488;8.226;2023-12-14T15:27:19;5.13;;;4.73;;
18893;SDS011;9579;49.488;8.226;2023-12-14T15:30:07;7.00;;;6.43;;
18893;SDS011;9579;49.488;8.226;2023-12-14T15:32:57;5.07;;;4.67;;
18893;SDS011;9579;49.488;8.226;2023-12-14T15:35:44;5.23;;;4.83;;
18893;SDS011;9579;49.488;8.226;2023-12-14T15:38:32;8.77;;;7.87;;
18893;SDS011;9579;49.488;8.226;2023-12-14T15:41:19;8.07;;;7.37;;
18893;SDS011;9579;49.488;8.226;2023-12-14T15:44:06;6.53;;;5.93;;
18893;SDS011;9579;49.488;8.226;2023-12-14T15:46:53;7.63;;;7.03;;
18893;SDS011;9579;49.488;8.226;2023-12-14T15:49:41;7.50;;;6.80;;
18893;SDS011;9579;49.488;8.226;2023-12-14T15:52:29;8.50;;;7.60;;
18893;SDS011;9579;49.488;8.226;2023-12-14T15:55:17;9.20;;;7.27;;
18893;SDS011;9579;49.488;8.226;2023-12-14T15:58:04;7.93;;;6.03;;
18893;SDS011;9579;49.488;8.226;2023-12-14T16:00:51;6.43;;;5.83;;
18893;SDS011;9579;49.488;8.226;2023-12-14T16:03:38;6.80;;;6.20;;
18893;SDS011;9579;49.488;8.226;2023-12-14T16:06:25;6.60;;;6.00;;
18893;SDS011;9579;49.488;8.226;2023-12-14T16:09:12;6.00;;;5.50;;
18893;SDS011;9579;49.488;8.226;2023-12-14T16:12:01;6.50;;;5.90;;
18893;SDS011;9579;49.488;8.226;2023-12-14T16:14:49;6.17;;;5.67;;
18893;SDS011;9579;49.488;8.226;2023-12-14T16:17:38;6.40;;;5.90;;
18893;SDS011;9579;49.488;8.226;2023-12-14T16:20:26;9.37;;;8.57;;
18893;SDS011;9579;49.488;8.226;2023-12-14T16:23:13;7.60;;;7.00;;
18893;SDS011;9579;49.488;8.226;2023-12-14T16:26:00;6.10;;;5.60;;
18893;SDS011;9579;49.488;8.226;2023-12-14T16:28:50;7.43;;;6.83;;
18893;SDS011;9579;49.488;8.226;2023-12-14T16:31:39;12.80;;;11.60;;
18893;SDS011;9579;49.488;8.226;2023-12-14T16:34:27;7.70;;;7.10;;
18893;SDS011;9579;49.488;8.226;2023-12-14T16:37:15;5.77;;;5.27;;
18893;SDS011;9579;49.488;8.226;2023-12-14T16:40:03;4.17;;;3.87;;
18893;SDS011;9579;49.488;8.226;2023-12-14T16:42:51;4.17;;;3.87;;
18893;SDS011;9579;49.488;8.226;2023-12-14T16:45:40;3.60;;;3.30;;
18893;SDS011;9579;49.488;8.226;2023-12-14T16:48:27;3.93;;;3.63;;
18893;SDS011;9579;49.488;8.226;2023-12-14T16:51:14;4.97;;;4.57;;
18893;SDS011;9579;49.488;8.226;2023-12-14T16:54:04;3.63;;;3.33;;
18893;SDS011;9579;49.488;8.226;2023-12-14T16:56:51;3.83;;;3.53;;
18893;SDS011;9579;49.488;8.226;2023-12-14T16:59:38;4.13;;;3.73;;
18893;SDS011;9579;49.488;8.226;2023-12-14T17:02:28;4.70;;;4.30;;
18893;SDS011;9579;49.488;8.226;2023-12-14T17:05:17;4.30;;;3.90;;
18893;SDS011;9579;49.488;8.226;2023-12-14T17:08:04;4.00;;;3.70;;
18893;SDS011;9579;49.488;8.226;2023-12-14T17:10:51;4.20;;;3.90;;
18893;SDS011;9579;49.488;8.226;2023-12-14T17:13:38;3.70;;;3.40;;
18893;SDS011;9579;49.488;8.226;2023-12-14T17:16:25;3.37;;;3.07;;
18893;SDS011;9579;49.488;8.226;2023-12-14T17:19:14;3.10;;;2.83;;
18893;SDS011;9579;49.488;8.226;2023-12-14T17:22:01;3.00;;;2.80;;
18893;SDS011;9579;49.488;8.226;2023-12-14T17:24:48;2.73;;;2.53;;
18893;SDS011;9579;49.488;8.226;2023-12-14T17:27:35;2.83;;;2.63;;
18893;SDS011;9579;49.488;8.226;2023-12-14T17:30:22;2.70;;;2.50;;
18893;SDS011;9579;49.488;8.226;2023-12-14T17:33:10;3.00;;;2.80;;
18893;SDS011;9579;49.488;8.226;2023-12-14T17:36:00;3.00;;;2.80;;
18893;SDS011;9579;49.488;8.226;2023-12-14T17:39:01;2.87;;;2.67;;
18893;SDS011;9579;49.488;8.226;2023-12-14T17:41:48;3.50;;;3.20;;
18893;SDS011;9579;49.488;8.226;2023-12-14T17:44:39;3.10;;;2.90;;
18893;SDS011;9579;49.488;8.226;2023-12-14T17:47:26;3.30;;;3.00;;
18893;SDS011;9579;49.488;8.226;2023-12-14T17:50:13;4.03;;;3.73;;
18893;SDS011;9579;49.488;8.226;2023-12-14T17:53:01;3.80;;;3.50;;
18893;SDS011;9579;49.488;8.226;2023-12-14T17:55:48;3.60;;;3.30;;
18893;SDS011;9579;49.488;8.226;2023-12-14T17:58:36;3.70;;;3.40;;
18893;SDS011;9579;49.488;8.226;2023-12-14T18:01:23;3.33;;;3.07;;
18893;SDS011;9579;49.488;8.226;2023-12-14T18:04:10;3.70;;;3.40;;
18893;SDS011;9579;49.488;8.226;2023-12-14T18:06:57;3.57;;;3.37;;
18893;SDS011;9579;49.488;8.226;2023-12-14T18:09:49;3.30;;;3.10;;
18893;SDS011;9579;49.488;8.226;2023-12-14T18:12:36;4.00;;;3.70;;
18893;SDS011;9579;49.488;8.226;2023-12-14T18:15:26;3.80;;;3.50;;
18893;SDS011;9579;49.488;8.226;2023-12-14T18:18:14;4.00;;;3.70;;
18893;SDS011;9579;49.488;8.226;2023-12-14T18:21:09;3.50;;;3.30;;
18893;SDS011;9579;49.488;8.226;2023-12-14T18:23:57;3.23;;;3.03;;
18893;SDS011;9579;49.488;8.226;2023-12-14T18:26:46;3.70;;;3.40;;
18893;SDS011;9579;49.488;8.226;2023-12-14T18:29:34;3.10;;;2.90;;
18893;SDS011;9579;49.488;8.226;2023-12-14T18:32:22;3.47;;;3.27;;
18893;SDS011;9579;49.488;8.226;2023-12-14T18:35:09;3.73;;;3.43;;
18893;SDS011;9579;49.488;8.226;2023-12-14T18:38:00;4.40;;;4.10;;
18893;SDS011;9579;49.488;8.226;2023-12-14T18:40:52;4.73;;;4.33;;
18893;SDS011;9579;49.488;8.226;2023-12-14T18:43:40;5.67;;;5.17;;
18893;SDS011;9579;49.488;8.226;2023-12-14T18:46:27;5.10;;;4.70;;
18893;SDS011;9579;49.488;8.226;2023-12-14T18:49:17;5.37;;;4.97;;
18893;SDS011;9579;49.488;8.226;2023-12-14T18:52:04;5.00;;;4.60;;
18893;SDS011;9579;49.488;8.226;2023-12-14T18:54:51;4.10;;;3.80;;
18893;SDS011;9579;49.488;8.226;2023-12-14T18:57:38;5.10;;;4.70;;
18893;SDS011;9579;49.488;8.226;2023-12-14T19:00:29;7.20;;;6.50;;
18893;SDS011;9579;49.488;8.226;2023-12-14T19:03:16;7.70;;;7.00;;
18893;SDS011;9579;49.488;8.226;2023-12-14T19:06:05;6.20;;;5.70;;
18893;SDS011;9579;49.488;8.226;2023-12-14T19:08:53;5.83;;;5.33;;
18893;SDS011;9579;49.488;8.226;2023-12-14T19:11:41;5.43;;;5.03;;
18893;SDS011;9579;49.488;8.226;2023-12-14T19:14:27;4.80;;;4.40;;
18893;SDS011;9579;49.488;8.226;2023-12-14T19:17:16;4.67;;;4.27;;
18893;SDS011;9579;49.488;8.226;2023-12-14T19:20:03;4.40;;;4.00;;
18893;SDS011;9579;49.488;8.226;2023-12-14T19:22:51;4.70;;;4.40;;
18893;SDS011;9579;49.488;8.226;2023-12-14T19:25:38;5.40;;;5.00;;
18893;SDS011;9579;49.488;8.226;2023-12-14T19:28:25;5.57;;;5.13;;
18893;SDS011;9579;49.488;8.226;2023-12-14T19:31:12;5.27;;;4.77;;
18893;SDS011;9579;49.488;8.226;2023-12-14T19:34:01;5.03;;;4.67;;
18893;SDS011;9579;49.488;8.226;2023-12-14T19:36:48;4.97;;;4.57;;
18893;SDS011;9579;49.488;8.226;2023-12-14T19:39:35;5.53;;;5.03;;
18893;SDS011;9579;49.488;8.226;2023-12-14T19:42:22;4.60;;;4.30;;
18893;SDS011;9579;49.488;8.226;2023-12-14T19:45:09;4.20;;;3.90;;
18893;SDS011;9579;49.488;8.226;2023-12-14T19:47:56;4.70;;;4.30;;
18893;SDS011;9579;49.488;8.226;2023-12-14T19:50:45;4.70;;;4.30;;
18893;SDS011;9579;49.488;8.226;2023-12-14T19:53:32;4.17;;;3.87;;
18893;SDS011;9579;49.488;8.226;2023-12-14T19:56:19;4.33;;;4.03;;
18893;SDS011;9579;49.488;8.226;2023-12-14T19:59:06;4.03;;;3.73;;
18893;SDS011;9579;49.488;8.226;2023-12-14T20:01:53;4.63;;;4.20;;
18893;SDS011;9579;49.488;8.226;2023-12-14T20:04:40;3.40;;;3.20;;
18893;SDS011;9579;49.488;8.226;2023-12-14T20:07:29;4.10;;;3.80;;
18893;SDS011;9579;49.488;8.226;2023-12-14T20:10:16;3.80;;;3.40;;
18893;SDS011;9579;49.488;8.226;2023-12-14T20:13:03;3.53;;;3.23;;
18893;SDS011;9579;49.488;8.226;2023-12-14T20:15:54;3.60;;;3.40;;
18893;SDS011;9579;49.488;8.226;2023-12-14T20:18:41;3.40;;;3.20;;
18893;SDS011;9579;49.488;8.226;2023-12-14T20:21:28;3.10;;;2.90;;
18893;SDS011;9579;49.488;8.226;2023-12-14T20:24:16;3.50;;;3.20;;
18893;SDS011;9579;49.488;8.226;2023-12-14T20:27:04;3.30;;;3.07;;
18893;SDS011;9579;49.488;8.226;2023-12-14T20:29:51;3.23;;;3.03;;
18893;SDS011;9579;49.488;8.226;2023-12-14T20:32:38;3.30;;;3.10;;
18893;SDS011;9579;49.488;8.226;2023-12-14T20:35:25;3.63;;;3.33;;
18893;SDS011;9579;49.488;8.226;2023-12-14T20:38:12;3.63;;;3.40;;